sensor_id;sensor_type;location;lat;lon;timestamp;pressure;altitude;pressure_sealevel;temperature;humidity
51031;BME280;37058;41.442;23.240;2022-08-21T00:01:28;99802.69;;;23.11;78.76
51031;BME280;37058;41.442;23.240;2022-08-21T00:03:56;99798.19;;;23.07;79.55
51031;BME280;37058;41.442;23.240;2022-08-21T00:06:23;99807.94;;;23.01;79.64
51031;BME280;37058;41.442;23.240;2022-08-21T00:08:51;99810.63;;;22.97;79.83
51031;BME280;37058;41.442;23.240;2022-08-21T00:11:18;99821.28;;;22.95;80.48
51031;BME280;37058;41.442;23.240;2022-08-21T00:13:44;99817.78;;;22.86;82.19
51031;BME280;37058;41.442;23.240;2022-08-21T00:16:10;99820.81;;;22.81;83.67
51031;BME280;37058;41.442;23.240;2022-08-21T00:18:37;99806.91;;;22.81;83.51
51031;BME280;37058;41.442;23.240;2022-08-21T00:21:03;99793.44;;;22.83;83.80
51031;BME280;37058;41.442;23.240;2022-08-21T00:23:30;99790.66;;;22.83;84.33
51031;BME280;37058;41.442;23.240;2022-08-21T00:25:56;99783.00;;;22.80;83.30
51031;BME280;37058;41.442;23.240;2022-08-21T00:28:22;99784.75;;;22.72;83.36
51031;BME280;37058;41.442;23.240;2022-08-21T00:30:48;99772.38;;;22.69;84.60
51031;BME280;37058;41.442;23.240;2022-08-21T00:33:14;99783.25;;;22.75;84.77
51031;BME280;37058;41.442;23.240;2022-08-21T00:35:42;99778.97;;;22.77;84.53
51031;BME280;37058;41.442;23.240;2022-08-21T00:38:09;99776.50;;;22.76;85.87
51031;BME280;37058;41.442;23.240;2022-08-21T00:40:42;99776.97;;;22.78;85.25
51031;BME280;37058;41.442;23.240;2022-08-21T00:43:12;99763.78;;;22.75;85.30
51031;BME280;37058;41.442;23.240;2022-08-21T00:45:39;99758.22;;;22.75;84.44
51031;BME280;37058;41.442;23.240;2022-08-21T00:48:05;99754.63;;;22.74;84.07
51031;BME280;37058;41.442;23.240;2022-08-21T00:50:35;99756.00;;;22.68;82.42
51031;BME280;37058;41.442;23.240;2022-08-21T00:53:06;99757.66;;;22.44;83.31
51031;BME280;37058;41.442;23.240;2022-08-21T00:55:34;99753.47;;;22.50;84.01
51031;BME280;37058;41.442;23.240;2022-08-21T00:58:02;99749.41;;;22.48;85.31
51031;BME280;37058;41.442;23.240;2022-08-21T01:00:35;99755.81;;;22.48;85.86
51031;BME280;37058;41.442;23.240;2022-08-21T01:03:12;99760.66;;;22.52;86.32
51031;BME280;37058;41.442;23.240;2022-08-21T01:05:40;99765.88;;;22.53;85.61
51031;BME280;37058;41.442;23.240;2022-08-21T01:08:08;99759.16;;;22.54;83.95
51031;BME280;37058;41.442;23.240;2022-08-21T01:10:36;99753.81;;;22.61;83.10
51031;BME280;37058;41.442;23.240;2022-08-21T01:13:06;99759.38;;;22.61;83.91
51031;BME280;37058;41.442;23.240;2022-08-21T01:15:37;99761.00;;;22.62;85.81
51031;BME280;37058;41.442;23.240;2022-08-21T01:18:07;99750.56;;;22.59;86.96
51031;BME280;37058;41.442;23.240;2022-08-21T01:20:34;99748.25;;;22.61;88.26
51031;BME280;37058;41.442;23.240;2022-08-21T01:23:03;99741.06;;;22.60;88.22
51031;BME280;37058;41.442;23.240;2022-08-21T01:25:31;99734.78;;;22.63;87.75
51031;BME280;37058;41.442;23.240;2022-08-21T01:28:02;99737.56;;;22.63;87.65
51031;BME280;37058;41.442;23.240;2022-08-21T01:30:33;99735.63;;;22.64;87.66
51031;BME280;37058;41.442;23.240;2022-08-21T01:33:00;99730.63;;;22.69;86.85
51031;BME280;37058;41.442;23.240;2022-08-21T01:35:26;99719.00;;;22.67;86.13
51031;BME280;37058;41.442;23.240;2022-08-21T01:37:52;99726.41;;;22.76;86.31
51031;BME280;37058;41.442;23.240;2022-08-21T01:40:18;99722.03;;;22.75;85.82
51031;BME280;37058;41.442;23.240;2022-08-21T01:42:45;99725.94;;;22.73;86.14
51031;BME280;37058;41.442;23.240;2022-08-21T01:45:14;99730.38;;;22.75;85.91
51031;BME280;37058;41.442;23.240;2022-08-21T01:47:40;99731.06;;;22.71;85.82
51031;BME280;37058;41.442;23.240;2022-08-21T01:50:10;99736.41;;;22.64;86.43
51031;BME280;37058;41.442;23.240;2022-08-21T01:52:36;99739.91;;;22.49;88.25
51031;BME280;37058;41.442;23.240;2022-08-21T01:55:05;99731.81;;;22.44;89.08
51031;BME280;37058;41.442;23.240;2022-08-21T01:57:32;99727.97;;;22.48;90.03
51031;BME280;37058;41.442;23.240;2022-08-21T01:59:58;99722.41;;;22.48;90.07
51031;BME280;37058;41.442;23.240;2022-08-21T02:02:24;99720.91;;;22.51;89.23
51031;BME280;37058;41.442;23.240;2022-08-21T02:04:50;99725.53;;;22.47;87.91
51031;BME280;37058;41.442;23.240;2022-08-21T02:07:16;99708.63;;;22.40;87.80
51031;BME280;37058;41.442;23.240;2022-08-21T02:09:42;99705.59;;;22.33;87.45
51031;BME280;37058;41.442;23.240;2022-08-21T02:12:10;99703.06;;;22.27;87.91
51031;BME280;37058;41.442;23.240;2022-08-21T02:14:37;99719.38;;;22.17;89.02
51031;BME280;37058;41.442;23.240;2022-08-21T02:17:03;99718.66;;;22.07;89.61
51031;BME280;37058;41.442;23.240;2022-08-21T02:19:30;99707.91;;;21.94;90.14
51031;BME280;37058;41.442;23.240;2022-08-21T02:21:55;99695.03;;;21.89;91.46
51031;BME280;37058;41.442;23.240;2022-08-21T02:24:21;99699.41;;;21.90;91.78
51031;BME280;37058;41.442;23.240;2022-08-21T02:26:47;99707.75;;;21.90;91.52
51031;BME280;37058;41.442;23.240;2022-08-21T02:29:13;99708.22;;;21.92;92.00
51031;BME280;37058;41.442;23.240;2022-08-21T02:31:39;99702.56;;;21.89;92.08
51031;BME280;37058;41.442;23.240;2022-08-21T02:34:05;99707.88;;;21.81;92.05
51031;BME280;37058;41.442;23.240;2022-08-21T02:36:31;99709.50;;;21.82;92.73
51031;BME280;37058;41.442;23.240;2022-08-21T02:38:57;99715.41;;;21.81;92.75
51031;BME280;37058;41.442;23.240;2022-08-21T02:41:23;99719.47;;;21.83;92.97
51031;BME280;37058;41.442;23.240;2022-08-21T02:43:49;99720.28;;;21.84;93.10
51031;BME280;37058;41.442;23.240;2022-08-21T02:46:19;99721.09;;;21.84;93.69
51031;BME280;37058;41.442;23.240;2022-08-21T02:48:45;99710.44;;;21.86;91.83
51031;BME280;37058;41.442;23.240;2022-08-21T02:51:17;99709.63;;;21.86;91.78
51031;BME280;37058;41.442;23.240;2022-08-21T02:53:45;99726.63;;;21.84;90.77
51031;BME280;37058;41.442;23.240;2022-08-21T02:56:16;99725.94;;;21.88;91.01
51031;BME280;37058;41.442;23.240;2022-08-21T02:58:50;99717.28;;;21.89;90.80
51031;BME280;37058;41.442;23.240;2022-08-21T03:01:17;99711.59;;;21.85;91.57
51031;BME280;37058;41.442;23.240;2022-08-21T03:03:46;99723.38;;;21.82;91.79
51031;BME280;37058;41.442;23.240;2022-08-21T03:06:15;99727.22;;;21.78;92.48
51031;BME280;37058;41.442;23.240;2022-08-21T03:08:42;99720.38;;;21.75;89.27
51031;BME280;37058;41.442;23.240;2022-08-21T03:11:11;99716.88;;;21.66;88.29
51031;BME280;37058;41.442;23.240;2022-08-21T03:13:38;99707.97;;;21.60;89.40
51031;BME280;37058;41.442;23.240;2022-08-21T03:16:04;99718.34;;;21.51;90.71
51031;BME280;37058;41.442;23.240;2022-08-21T03:18:31;99726.31;;;21.40;91.20
51031;BME280;37058;41.442;23.240;2022-08-21T03:20:57;99727.31;;;21.36;92.46
51031;BME280;37058;41.442;23.240;2022-08-21T03:23:23;99714.91;;;21.33;91.74
51031;BME280;37058;41.442;23.240;2022-08-21T03:25:49;99710.59;;;21.45;92.96
51031;BME280;37058;41.442;23.240;2022-08-21T03:28:21;99723.16;;;21.42;92.38
51031;BME280;37058;41.442;23.240;2022-08-21T03:30:50;99736.03;;;21.47;92.85
51031;BME280;37058;41.442;23.240;2022-08-21T03:33:17;99744.16;;;21.52;94.25
51031;BME280;37058;41.442;23.240;2022-08-21T03:35:47;99740.72;;;21.55;92.92
51031;BME280;37058;41.442;23.240;2022-08-21T03:38:16;99740.72;;;21.55;92.29
51031;BME280;37058;41.442;23.240;2022-08-21T03:40:43;99748.69;;;21.56;92.27
51031;BME280;37058;41.442;23.240;2022-08-21T03:43:09;99748.84;;;21.60;92.14
51031;BME280;37058;41.442;23.240;2022-08-21T03:45:35;99740.03;;;21.58;91.62
51031;BME280;37058;41.442;23.240;2022-08-21T03:48:05;99741.53;;;21.55;90.74
51031;BME280;37058;41.442;23.240;2022-08-21T03:50:40;99745.84;;;21.65;90.88
51031;BME280;37058;41.442;23.240;2022-08-21T03:53:09;99752.31;;;21.69;91.11
51031;BME280;37058;41.442;23.240;2022-08-21T03:55:35;99756.38;;;21.72;91.19
51031;BME280;37058;41.442;23.240;2022-08-21T03:58:01;99754.53;;;21.76;90.71
51031;BME280;37058;41.442;23.240;2022-08-21T04:00:28;99759.19;;;21.84;88.68
51031;BME280;37058;41.442;23.240;2022-08-21T04:02:54;99758.38;;;21.83;89.49
51031;BME280;37058;41.442;23.240;2022-08-21T04:05:21;99769.84;;;21.82;89.65
51031;BME280;37058;41.442;23.240;2022-08-21T04:08:03;99777.38;;;21.81;90.56
51031;BME280;37058;41.442;23.240;2022-08-21T04:10:32;99765.44;;;21.81;91.82
51031;BME280;37058;41.442;23.240;2022-08-21T04:13:00;99761.97;;;21.84;92.06
51031;BME280;37058;41.442;23.240;2022-08-21T04:15:27;99764.84;;;21.88;92.32
51031;BME280;37058;41.442;23.240;2022-08-21T04:17:53;99755.84;;;21.91;92.58
51031;BME280;37058;41.442;23.240;2022-08-21T04:20:20;99765.34;;;21.90;92.92
51031;BME280;37058;41.442;23.240;2022-08-21T04:22:47;99771.38;;;21.92;92.73
51031;BME280;37058;41.442;23.240;2022-08-21T04:25:15;99779.22;;;21.90;92.79
51031;BME280;37058;41.442;23.240;2022-08-21T04:27:41;99769.28;;;21.89;93.06
51031;BME280;37058;41.442;23.240;2022-08-21T04:30:08;99764.53;;;21.89;93.43
51031;BME280;37058;41.442;23.240;2022-08-21T04:32:41;99765.34;;;21.90;93.70
51031;BME280;37058;41.442;23.240;2022-08-21T04:35:10;99760.25;;;21.92;93.50
51031;BME280;37058;41.442;23.240;2022-08-21T04:37:36;99763.59;;;21.97;92.49
51031;BME280;37058;41.442;23.240;2022-08-21T04:40:04;99759.31;;;22.00;92.33
51031;BME280;37058;41.442;23.240;2022-08-21T04:42:30;99758.28;;;22.04;92.25
51031;BME280;37058;41.442;23.240;2022-08-21T04:44:56;99769.31;;;22.13;91.85
51031;BME280;37058;41.442;23.240;2022-08-21T04:47:23;99773.94;;;22.09;90.86
51031;BME280;37058;41.442;23.240;2022-08-21T04:49:49;99781.72;;;22.03;91.50
51031;BME280;37058;41.442;23.240;2022-08-21T04:52:19;99786.91;;;22.05;91.82
51031;BME280;37058;41.442;23.240;2022-08-21T04:54:46;99788.78;;;22.13;91.07
51031;BME280;37058;41.442;23.240;2022-08-21T04:57:15;99776.16;;;22.16;89.37
51031;BME280;37058;41.442;23.240;2022-08-21T04:59:47;99779.09;;;22.19;89.30
51031;BME280;37058;41.442;23.240;2022-08-21T05:02:13;99783.13;;;22.22;88.83
51031;BME280;37058;41.442;23.240;2022-08-21T05:04:48;99793.28;;;22.18;87.99
51031;BME280;37058;41.442;23.240;2022-08-21T05:07:20;99787.75;;;22.05;87.73
51031;BME280;37058;41.442;23.240;2022-08-21T05:09:48;99787.25;;;22.03;87.62
51031;BME280;37058;41.442;23.240;2022-08-21T05:12:14;99795.34;;;21.96;91.70
51031;BME280;37058;41.442;23.240;2022-08-21T05:14:40;99789.22;;;21.91;93.14
51031;BME280;37058;41.442;23.240;2022-08-21T05:17:08;99784.31;;;21.88;92.65
51031;BME280;37058;41.442;23.240;2022-08-21T05:19:34;99784.69;;;21.86;92.84
51031;BME280;37058;41.442;23.240;2022-08-21T05:22:00;99774.13;;;21.79;91.69
51031;BME280;37058;41.442;23.240;2022-08-21T05:24:27;99778.97;;;21.82;92.41
51031;BME280;37058;41.442;23.240;2022-08-21T05:26:54;99779.81;;;21.83;92.50
51031;BME280;37058;41.442;23.240;2022-08-21T05:29:20;99781.06;;;21.73;93.49
51031;BME280;37058;41.442;23.240;2022-08-21T05:31:48;99772.78;;;21.64;94.87
51031;BME280;37058;41.442;23.240;2022-08-21T05:34:19;99777.00;;;21.71;95.15
51031;BME280;37058;41.442;23.240;2022-08-21T05:36:45;99769.13;;;21.73;94.77
51031;BME280;37058;41.442;23.240;2022-08-21T05:39:11;99772.34;;;21.75;92.57
51031;BME280;37058;41.442;23.240;2022-08-21T05:41:37;99785.44;;;21.74;93.20
51031;BME280;37058;41.442;23.240;2022-08-21T05:44:04;99783.94;;;21.77;94.69
51031;BME280;37058;41.442;23.240;2022-08-21T05:46:30;99792.44;;;21.80;93.19
51031;BME280;37058;41.442;23.240;2022-08-21T06:39:41;99787.59;;;23.25;80.08
51031;BME280;37058;41.442;23.240;2022-08-21T06:42:16;99790.00;;;23.26;80.49
51031;BME280;37058;41.442;23.240;2022-08-21T06:44:43;99795.22;;;23.28;79.56
51031;BME280;37058;41.442;23.240;2022-08-21T06:47:11;99792.19;;;23.33;79.85
51031;BME280;37058;41.442;23.240;2022-08-21T06:49:37;99795.75;;;23.46;79.71
51031;BME280;37058;41.442;23.240;2022-08-21T06:52:03;99790.22;;;23.62;78.80
51031;BME280;37058;41.442;23.240;2022-08-21T06:54:29;99792.75;;;23.67;78.37
51031;BME280;37058;41.442;23.240;2022-08-21T06:56:56;99795.28;;;23.72;79.38
51031;BME280;37058;41.442;23.240;2022-08-21T06:59:22;99786.34;;;23.78;79.11
51031;BME280;37058;41.442;23.240;2022-08-21T07:01:47;99785.47;;;23.90;79.42
51031;BME280;37058;41.442;23.240;2022-08-21T07:04:13;99787.25;;;23.98;78.81
51031;BME280;37058;41.442;23.240;2022-08-21T07:06:39;99783.84;;;24.05;77.77
51031;BME280;37058;41.442;23.240;2022-08-21T07:09:05;99793.03;;;24.06;78.23
51031;BME280;37058;41.442;23.240;2022-08-21T07:11:31;99785.66;;;24.13;76.76
51031;BME280;37058;41.442;23.240;2022-08-21T07:13:57;99789.34;;;24.17;77.02
51031;BME280;37058;41.442;23.240;2022-08-21T07:16:24;99787.81;;;24.20;76.92
51031;BME280;37058;41.442;23.240;2022-08-21T07:18:50;99781.78;;;24.18;77.07
51031;BME280;37058;41.442;23.240;2022-08-21T07:21:16;99784.41;;;24.27;76.75
51031;BME280;37058;41.442;23.240;2022-08-21T07:23:48;99777.00;;;24.34;76.42
51031;BME280;37058;41.442;23.240;2022-08-21T07:26:19;99782.66;;;24.38;76.65
51031;BME280;37058;41.442;23.240;2022-08-21T07:28:47;99778.53;;;24.32;75.77
51031;BME280;37058;41.442;23.240;2022-08-21T07:31:16;99781.59;;;24.42;75.68
51031;BME280;37058;41.442;23.240;2022-08-21T07:33:43;99783.78;;;24.49;75.11
51031;BME280;37058;41.442;23.240;2022-08-21T07:36:10;99776.88;;;24.78;74.30
51031;BME280;37058;41.442;23.240;2022-08-21T07:38:36;99778.97;;;25.01;73.39
51031;BME280;37058;41.442;23.240;2022-08-21T07:41:10;99776.91;;;25.33;72.59
51031;BME280;37058;41.442;23.240;2022-08-21T07:43:38;99775.06;;;25.60;71.58
51031;BME280;37058;41.442;23.240;2022-08-21T07:46:04;99768.16;;;25.77;70.63
51031;BME280;37058;41.442;23.240;2022-08-21T07:48:30;99760.75;;;25.85;70.48
51031;BME280;37058;41.442;23.240;2022-08-21T07:50:56;99762.31;;;26.05;69.27
51031;BME280;37058;41.442;23.240;2022-08-21T07:53:22;99768.72;;;26.29;67.48
51031;BME280;37058;41.442;23.240;2022-08-21T07:55:48;99758.66;;;26.51;65.72
51031;BME280;37058;41.442;23.240;2022-08-21T07:58:14;99765.81;;;26.71;64.80
51031;BME280;37058;41.442;23.240;2022-08-21T08:00:40;99764.72;;;26.79;66.00
51031;BME280;37058;41.442;23.240;2022-08-21T08:03:06;99762.84;;;26.87;64.88
51031;BME280;37058;41.442;23.240;2022-08-21T08:05:32;99752.81;;;26.86;65.72
51031;BME280;37058;41.442;23.240;2022-08-21T08:07:59;99751.00;;;27.01;65.04
51031;BME280;37058;41.442;23.240;2022-08-21T08:10:25;99753.88;;;27.05;64.01
51031;BME280;37058;41.442;23.240;2022-08-21T08:12:52;99745.13;;;27.10;63.52
51031;BME280;37058;41.442;23.240;2022-08-21T08:15:24;99736.91;;;27.24;64.59
51031;BME280;37058;41.442;23.240;2022-08-21T08:17:51;99739.72;;;27.24;65.08
51031;BME280;37058;41.442;23.240;2022-08-21T08:20:18;99734.81;;;27.48;64.83
51031;BME280;37058;41.442;23.240;2022-08-21T08:22:45;99734.84;;;27.55;62.36
51031;BME280;37058;41.442;23.240;2022-08-21T08:25:13;99729.91;;;27.41;63.83
51031;BME280;37058;41.442;23.240;2022-08-21T08:27:40;99732.06;;;27.21;63.14
51031;BME280;37058;41.442;23.240;2022-08-21T08:30:09;99726.78;;;27.16;62.89
51031;BME280;37058;41.442;23.240;2022-08-21T08:32:37;99724.56;;;26.98;65.35
51031;BME280;37058;41.442;23.240;2022-08-21T08:35:04;99727.19;;;26.84;63.75
51031;BME280;37058;41.442;23.240;2022-08-21T08:37:32;99731.34;;;26.67;64.45
51031;BME280;37058;41.442;23.240;2022-08-21T08:39:58;99728.00;;;26.58;64.67
51031;BME280;37058;41.442;23.240;2022-08-21T08:42:33;99734.28;;;26.51;65.53
51031;BME280;37058;41.442;23.240;2022-08-21T08:45:14;99734.56;;;26.20;66.36
51031;BME280;37058;41.442;23.240;2022-08-21T08:47:52;99731.50;;;25.82;68.09
51031;BME280;37058;41.442;23.240;2022-08-21T08:50:49;99724.84;;;25.67;68.65
51031;BME280;37058;41.442;23.240;2022-08-21T08:53:34;99718.66;;;25.78;69.28
51031;BME280;37058;41.442;23.240;2022-08-21T08:56:04;99722.63;;;25.77;68.36
51031;BME280;37058;41.442;23.240;2022-08-21T08:58:37;99718.66;;;25.78;69.31
51031;BME280;37058;41.442;23.240;2022-08-21T09:01:18;99716.28;;;25.80;68.62
51031;BME280;37058;41.442;23.240;2022-08-21T09:03:46;99715.00;;;25.97;68.91
51031;BME280;37058;41.442;23.240;2022-08-21T09:09:46;99720.03;;;26.10;67.47
51031;BME280;37058;41.442;23.240;2022-08-21T09:12:50;99713.56;;;26.06;68.36
51031;BME280;37058;41.442;23.240;2022-08-21T09:15:32;99714.69;;;26.02;67.76
51031;BME280;37058;41.442;23.240;2022-08-21T09:21:18;99705.53;;;26.05;67.72
51031;BME280;37058;41.442;23.240;2022-08-21T09:23:58;99698.06;;;26.12;68.67
51031;BME280;37058;41.442;23.240;2022-08-21T09:26:31;99690.59;;;26.20;67.21
51031;BME280;37058;41.442;23.240;2022-08-21T09:29:00;99698.75;;;26.29;67.69
51031;BME280;37058;41.442;23.240;2022-08-21T09:31:31;99697.13;;;26.28;67.24
51031;BME280;37058;41.442;23.240;2022-08-21T09:34:26;99690.25;;;26.22;65.73
51031;BME280;37058;41.442;23.240;2022-08-21T09:36:53;99692.97;;;26.18;66.13
51031;BME280;37058;41.442;23.240;2022-08-21T09:39:31;99694.28;;;26.24;65.93
51031;BME280;37058;41.442;23.240;2022-08-21T09:42:04;99694.59;;;26.19;66.33
51031;BME280;37058;41.442;23.240;2022-08-21T09:44:35;99691.63;;;26.08;65.39
51031;BME280;37058;41.442;23.240;2022-08-21T09:47:07;99688.91;;;25.89;67.87
51031;BME280;37058;41.442;23.240;2022-08-21T09:49:39;99689.06;;;25.77;68.05
51031;BME280;37058;41.442;23.240;2022-08-21T09:52:20;99698.66;;;25.76;69.01
51031;BME280;37058;41.442;23.240;2022-08-21T09:54:52;99699.00;;;25.74;69.25
51031;BME280;37058;41.442;23.240;2022-08-21T09:57:28;99690.13;;;25.68;69.12
51031;BME280;37058;41.442;23.240;2022-08-21T10:00:31;99687.25;;;25.65;69.75
51031;BME280;37058;41.442;23.240;2022-08-21T10:03:20;99687.13;;;25.58;69.05
51031;BME280;37058;41.442;23.240;2022-08-21T10:06:03;99679.88;;;25.53;70.63
51031;BME280;37058;41.442;23.240;2022-08-21T10:08:33;99687.16;;;25.38;72.30
51031;BME280;37058;41.442;23.240;2022-08-21T10:11:13;99683.50;;;25.34;73.88
51031;BME280;37058;41.442;23.240;2022-08-21T10:17:04;99684.16;;;25.08;78.86
51031;BME280;37058;41.442;23.240;2022-08-21T10:20:04;99678.72;;;24.96;81.97
51031;BME280;37058;41.442;23.240;2022-08-21T10:31:21;99684.09;;;24.50;85.39
51031;BME280;37058;41.442;23.240;2022-08-21T10:37:14;99670.75;;;24.43;80.61
51031;BME280;37058;41.442;23.240;2022-08-21T10:46:08;99667.94;;;24.23;84.08
51031;BME280;37058;41.442;23.240;2022-08-21T10:54:50;99671.53;;;24.24;84.15
51031;BME280;37058;41.442;23.240;2022-08-21T10:57:07;99668.75;;;24.24;82.43
51031;BME280;37058;41.442;23.240;2022-08-21T10:59:52;99654.06;;;24.27;81.62
51031;BME280;37058;41.442;23.240;2022-08-21T11:02:31;99648.72;;;24.38;81.78
51031;BME280;37058;41.442;23.240;2022-08-21T11:05:17;99656.28;;;24.53;79.14
51031;BME280;37058;41.442;23.240;2022-08-21T11:07:55;99649.31;;;24.63;78.49
51031;BME280;37058;41.442;23.240;2022-08-21T11:11:01;99655.34;;;24.84;78.53
51031;BME280;37058;41.442;23.240;2022-08-21T11:21:47;99626.53;;;25.19;73.08
51031;BME280;37058;41.442;23.240;2022-08-21T11:27:41;99622.91;;;25.19;77.32
51031;BME280;37058;41.442;23.240;2022-08-21T11:30:09;99627.09;;;25.28;75.38
51031;BME280;37058;41.442;23.240;2022-08-21T11:44:17;99621.94;;;25.77;71.82
51031;BME280;37058;41.442;23.240;2022-08-21T11:49:50;99616.63;;;25.68;73.92
51031;BME280;37058;41.442;23.240;2022-08-21T11:52:31;99620.66;;;25.70;74.08
51031;BME280;37058;41.442;23.240;2022-08-21T11:55:28;99620.88;;;25.62;74.03
51031;BME280;37058;41.442;23.240;2022-08-21T12:00:51;99612.78;;;25.53;72.89
51031;BME280;37058;41.442;23.240;2022-08-21T12:03:34;99614.81;;;25.56;72.30
51031;BME280;37058;41.442;23.240;2022-08-21T12:06:07;99609.59;;;25.55;72.93
51031;BME280;37058;41.442;23.240;2022-08-21T12:08:35;99609.91;;;25.49;71.92
51031;BME280;37058;41.442;23.240;2022-08-21T12:16:36;99609.53;;;25.51;71.64
51031;BME280;37058;41.442;23.240;2022-08-21T13:00:05;99617.44;;;23.93;91.96
51031;BME280;37058;41.442;23.240;2022-08-21T13:02:42;99621.28;;;23.89;93.56
51031;BME280;37058;41.442;23.240;2022-08-21T13:05:15;99622.66;;;23.79;92.26
51031;BME280;37058;41.442;23.240;2022-08-21T13:07:46;99619.78;;;23.75;92.61
51031;BME280;37058;41.442;23.240;2022-08-21T13:10:26;99625.63;;;23.86;92.96
51031;BME280;37058;41.442;23.240;2022-08-21T13:13:00;99615.66;;;23.85;92.26
51031;BME280;37058;41.442;23.240;2022-08-21T13:15:37;99621.75;;;23.91;91.96
51031;BME280;37058;41.442;23.240;2022-08-21T13:18:05;99621.47;;;23.80;84.20
51031;BME280;37058;41.442;23.240;2022-08-21T13:20:39;99614.75;;;23.81;88.89
51031;BME280;37058;41.442;23.240;2022-08-21T13:23:27;99616.34;;;23.66;92.39
51031;BME280;37058;41.442;23.240;2022-08-21T13:25:55;99610.56;;;23.59;93.11
51031;BME280;37058;41.442;23.240;2022-08-21T13:28:22;99602.22;;;23.43;91.86
51031;BME280;37058;41.442;23.240;2022-08-21T13:30:51;99601.94;;;23.48;91.15
51031;BME280;37058;41.442;23.240;2022-08-21T13:33:22;99589.00;;;23.40;92.25
51031;BME280;37058;41.442;23.240;2022-08-21T13:38:24;99597.81;;;23.42;89.81
51031;BME280;37058;41.442;23.240;2022-08-21T13:41:19;99604.53;;;23.41;85.24
51031;BME280;37058;41.442;23.240;2022-08-21T13:43:56;99613.81;;;23.45;84.43
51031;BME280;37058;41.442;23.240;2022-08-21T13:46:26;99612.63;;;23.46;84.16
51031;BME280;37058;41.442;23.240;2022-08-21T13:48:54;99607.59;;;23.52;89.05
51031;BME280;37058;41.442;23.240;2022-08-21T13:51:21;99614.88;;;23.56;85.29
51031;BME280;37058;41.442;23.240;2022-08-21T13:53:50;99621.19;;;23.53;83.99
51031;BME280;37058;41.442;23.240;2022-08-21T13:56:41;99620.28;;;23.49;84.61
51031;BME280;37058;41.442;23.240;2022-08-21T13:59:08;99622.25;;;23.33;85.35
51031;BME280;37058;41.442;23.240;2022-08-21T14:01:49;99621.53;;;23.36;88.73
51031;BME280;37058;41.442;23.240;2022-08-21T14:04:24;99621.78;;;23.31;85.77
51031;BME280;37058;41.442;23.240;2022-08-21T14:06:51;99610.91;;;23.26;86.60
51031;BME280;37058;41.442;23.240;2022-08-21T14:09:41;99599.78;;;23.26;89.06
51031;BME280;37058;41.442;23.240;2022-08-21T14:12:41;99610.31;;;23.32;89.55
51031;BME280;37058;41.442;23.240;2022-08-21T14:15:08;99607.78;;;23.43;91.92
51031;BME280;37058;41.442;23.240;2022-08-21T14:17:39;99595.31;;;23.53;87.36
51031;BME280;37058;41.442;23.240;2022-08-21T14:20:11;99591.59;;;23.65;89.00
51031;BME280;37058;41.442;23.240;2022-08-21T14:22:45;99602.69;;;23.77;87.59
51031;BME280;37058;41.442;23.240;2022-08-21T14:27:58;99587.91;;;23.92;85.09
51031;BME280;37058;41.442;23.240;2022-08-21T14:30:36;99571.50;;;24.07;86.14
51031;BME280;37058;41.442;23.240;2022-08-21T14:33:07;99573.09;;;24.23;84.67
51031;BME280;37058;41.442;23.240;2022-08-21T14:35:34;99576.72;;;24.43;82.31
51031;BME280;37058;41.442;23.240;2022-08-21T14:38:00;99579.47;;;24.59;82.83
51031;BME280;37058;41.442;23.240;2022-08-21T14:40:27;99572.63;;;24.57;81.69
51031;BME280;37058;41.442;23.240;2022-08-21T14:42:53;99569.84;;;24.57;81.74
51031;BME280;37058;41.442;23.240;2022-08-21T14:45:30;99567.91;;;24.61;80.74
51031;BME280;37058;41.442;23.240;2022-08-21T14:47:58;99564.41;;;24.64;81.56
51031;BME280;37058;41.442;23.240;2022-08-21T14:50:25;99575.56;;;24.64;81.91
51031;BME280;37058;41.442;23.240;2022-08-21T14:52:51;99571.66;;;24.69;80.78
51031;BME280;37058;41.442;23.240;2022-08-21T14:55:18;99561.47;;;24.57;80.04
51031;BME280;37058;41.442;23.240;2022-08-21T14:57:50;99566.25;;;24.40;79.11
51031;BME280;37058;41.442;23.240;2022-08-21T15:00:21;99550.22;;;24.18;81.25
51031;BME280;37058;41.442;23.240;2022-08-21T15:02:49;99549.78;;;23.96;82.17
51031;BME280;37058;41.442;23.240;2022-08-21T15:05:16;99531.25;;;23.88;81.78
51031;BME280;37058;41.442;23.240;2022-08-21T15:07:42;99531.84;;;23.78;82.77
51031;BME280;37058;41.442;23.240;2022-08-21T15:10:09;99526.84;;;23.71;81.77
51031;BME280;37058;41.442;23.240;2022-08-21T15:12:35;99521.50;;;23.63;80.58
51031;BME280;37058;41.442;23.240;2022-08-21T15:15:04;99514.50;;;23.37;81.61
51031;BME280;37058;41.442;23.240;2022-08-21T15:17:30;99505.41;;;23.24;80.79
51031;BME280;37058;41.442;23.240;2022-08-21T15:19:56;99500.03;;;23.15;80.91
51031;BME280;37058;41.442;23.240;2022-08-21T15:22:22;99509.56;;;23.14;80.85
51031;BME280;37058;41.442;23.240;2022-08-21T15:24:47;99502.56;;;23.21;81.95
51031;BME280;37058;41.442;23.240;2022-08-21T15:27:15;99506.25;;;23.25;82.42
51031;BME280;37058;41.442;23.240;2022-08-21T15:29:42;99506.13;;;23.21;81.65
51031;BME280;37058;41.442;23.240;2022-08-21T15:32:24;99503.88;;;23.27;81.26
51031;BME280;37058;41.442;23.240;2022-08-21T15:34:53;99500.59;;;23.37;82.26
51031;BME280;37058;41.442;23.240;2022-08-21T15:37:20;99499.06;;;23.40;80.37
51031;BME280;37058;41.442;23.240;2022-08-21T15:39:46;99487.25;;;23.46;81.04
51031;BME280;37058;41.442;23.240;2022-08-21T15:42:12;99482.75;;;23.57;81.55
51031;BME280;37058;41.442;23.240;2022-08-21T15:44:42;99480.94;;;23.65;78.20
51031;BME280;37058;41.442;23.240;2022-08-21T15:47:14;99479.94;;;23.73;80.15
51031;BME280;37058;41.442;23.240;2022-08-21T15:49:41;99486.31;;;23.74;78.92
51031;BME280;37058;41.442;23.240;2022-08-21T15:52:19;99478.88;;;23.78;78.68